x

Texas Tower #4 - 75 Nm East Of Long Beach, Nj (44066) Wave Buoy

1:50pm - Fri 22nd Aug 2014 All times are EDT. -4 hours from GMT.

  • Sig Wave height 3.6ft
  • Swell Direction
  • Peak Period 7s
  • Average Period 5s
  • Wind
    16mph, 18mph gusts
  • Sea Temp 73°f
  • Air Temp 71°f
  • Sea Pressure 1015.5mb
  • Texas Tower #4 - 75 Nm East Of Long Beach, Nj
  • Texas Tower #4 - 75 Nm East Of Long Beach, Nj

More Historic Weather Station data

Upgrade to MSW Pro to gain access to the past 30 days of data for over 8000 Wavebouys and Weather Stations around the globe.

Join Pro

Comparision Forecast

View Surf forecast
   
Fri 08/22 1:50pm 3.5ft 7s 5s 16 18 mph 1015.5mb 73f 71f
12:50pm 3.5ft 7s 5s 11 13 mph 1016mb 73f 72f
11:50am 3.5ft 7s 5s 13
mph
- 73f 72f
10:50am 3.5ft 8s 5s 13 16 mph 1016.5mb 73f 72f
9:50am 3.5ft 7s 5s 16 18 mph 1015.8mb 73f 71f
8:50am 3.5ft 7s 5s 16 20 mph 1015.9mb 72f 71f
7:50am 3.5ft 7s 5s 18 20 mph 1015.7mb 73f 70f
6:50am 3ft 8s 5s 13 16 mph 1015.2mb 73f 70f
5:50am 3ft 7s 5s 9 11 mph 1015.6mb 73f 70f
4:50am 3.5ft 7s 5s 11 13 mph 1015.7mb 73f 71f
3:50am 3.5ft 7s 5s 7 9 mph 1015.7mb 73f 71f
2:50am 3.5ft 7s 5s 7 9 mph 1015.9mb 73f 72f
1:50am 3.5ft 7s 6s 9
mph
1016.1mb 74f 72f
12:50am 4ft 7s 6s 9
mph
1016.8mb 74f 72f
Thu 08/21 11:50pm 3.5ft 7s 6s 9 11 mph 1017.1mb 74f 72f
10:50pm 4ft 7s 6s 9
mph
1017.3mb 74f 72f
9:50pm 4ft 7s 6s 7 9 mph 1017.5mb 74f 72f
8:50pm 3.5ft 8s 6s 11 13 mph 1017mb 74f 72f
7:50pm 3.5ft 7s 6s 9 11 mph 1017.1mb 74f 71f
6:50pm 3.5ft 7s 5s 9 11 mph 1016.8mb 74f 72f
5:50pm 3.5ft 7s 5s 4 7 mph 1017.2mb 74f 72f
4:50pm 3.5ft 7s 5s 7 9 mph 1017mb 74f 72f
3:50pm 3.5ft 7s 5s 7
mph
1017.2mb 74f 72f
2:50pm 3.5ft 6s 5s 7
mph
1017.6mb 74f 72f
1:50pm 3ft 7s 5s 7 9 mph 1017.8mb 74f 71f
12:50pm 3ft 6s 5s 7 9 mph 1018mb 74f 71f
11:50am 3ft 6s 5s 11 13 mph 1017.6mb 73f 70f
10:50am 3ft 6s 5s 13 16 mph 1017.7mb 73f 70f
9:50am 3ft 7s 4s 13 16 mph 1018mb 73f 70f
8:50am 2.5ft 7s 4s 16 18 mph 1017.8mb 73f 70f
7:50am 3ft 6s 5s 13 16 mph 1017.2mb 73f 71f
6:50am 2.5ft 6s 5s 11
mph
1016.6mb 73f 70f
5:50am 2.5ft 6s 5s 9 11 mph 1016.4mb 73f 70f
4:50am 2.5ft 6s 5s 9 11 mph 1016.1mb 73f 70f
3:50am 3ft 6s 5s 9 11 mph 1016.4mb 73f 70f
2:50am 3ft 6s 5s 9 11 mph 1016.4mb 73f 70f
1:50am 3.5ft 6s 5s 9 11 mph 1016.8mb 73f 71f
12:50am 3ft 6s 5s 9 11 mph 1016.5mb 73f 71f
Wed 08/20 11:50pm 3.5ft 6s 6s 13 16 mph 1015.7mb 73f 71f
10:50pm 3.5ft 6s 5s 9 11 mph 1015.9mb 73f 71f
9:50pm 3.5ft 7s 5s 4 7 mph 1016.7mb 73f 71f
8:50pm 3.5ft 6s 5s 4 7 mph 1016.6mb 73f 71f
7:50pm 3.5ft 6s 5s 9 11 mph 1016mb 73f 71f
6:50pm 3.5ft 6s 5s 11
mph
1016mb 73f 72f
5:50pm 3.5ft 6s 5s 11 13 mph 1015.8mb 73f 72f
4:50pm 3ft 6s 5s 13 16 mph 1015.4mb 73f 72f
3:50pm 3ft 6s 5s 16 18 mph 1014.7mb 73f 72f
2:50pm 3ft 6s 5s 11 13 mph 1015.2mb 73f 72f
1:50pm 3ft 6s 5s 11 13 mph 1015.6mb 73f 72f
12:50pm 2.5ft 6s 4s 13 16 mph 1015.5mb 73f 72f
11:50am 2.5ft 6s 4s 13 16 mph 1015.9mb 73f 72f
10:50am 2.5ft 5s 4s 13 16 mph 1015.8mb 73f 72f
9:50am 3ft 5s 4s 13 16 mph 1015.3mb 73f 72f
8:50am 2.5ft 5s 4s 13 16 mph 1015mb 73f 72f
7:50am 2.5ft 6s 4s 13 16 mph 1014.3mb 73f 72f
6:50am 2.5ft 5s 4s 13 16 mph 1013.8mb 72f 72f
5:50am 2.5ft 6s 4s 11 13 mph 1013.6mb 72f 71f
4:50am 2.5ft 5s 4s 11 13 mph 1013.1mb 73f 72f
3:50am 2.5ft 9s 4s 11 13 mph 1013mb 73f 72f
2:50am 2.5ft 4s 4s 11 13 mph 1013mb 73f 72f
1:50am 2ft 10s 4s 11 13 mph 1013.1mb 73f 72f
12:50am 2ft 8s 4s 11
mph
1013.4mb 74f 72f
Tue 08/19 11:50pm 2ft 9s 4s 11 13 mph 1013.6mb 74f 73f
10:50pm 2.5ft 10s 4s 11 13 mph 1013mb 75f 73f
9:50pm 2.5ft 4s 4s 13
mph
1013.1mb 75f 73f
8:50pm 2ft 4s 5s 11 16 mph 1012.9mb 75f 73f
7:50pm 2ft 10s 5s 11 13 mph 1012.6mb 75f 73f
6:50pm 2ft 9s 5s 11 13 mph 1012.1mb 75f 73f
5:50pm 2ft 9s 5s 9
mph
1012.4mb 74f 74f
4:50pm 1.6ft 8s 5s 7 9 mph 1012.3mb 74f 74f
3:50pm 2ft 9s 5s 7 9 mph 1012.4mb 74f 74f
2:50pm 1.6ft 9s 4s 7 9 mph 1012.3mb 74f 73f
1:50pm 1.6ft 9s 4s 9
mph
1012.5mb 73f 73f
12:50pm 2ft 9s 4s 9 11 mph 1012.5mb 73f 73f
11:50am 1.6ft 9s 4s 11 13 mph 1012.5mb 73f 73f
10:50am 2ft 9s 4s 11 13 mph 1012.5mb 73f 73f
9:50am 1.6ft 8s 5s 11 13 mph 1012.3mb 73f 73f
8:50am 1.6ft 9s 5s 11 13 mph 1012.1mb 73f 73f
7:50am 1.6ft 8s 5s 11
mph
1011.8mb 73f 74f
6:50am 1.6ft 9s 6s 9 11 mph 1011.6mb 73f 73f
5:50am 1.3ft 8s 6s 9
mph
1011.2mb 74f 72f
4:50am 1.6ft 9s 6s 7
mph
1010.9mb 74f 73f
3:50am 1.3ft 9s 5s 7 9 mph 1010.6mb 74f 73f
2:50am 1.3ft 9s 5s 7
mph
1011mb 74f 73f
1:50am 1.3ft 9s 5s 7
mph
1011.2mb 74f 73f
12:50am 1.6ft 8s 6s 7
mph
1011.6mb 74f 73f
Mon 08/18 11:50pm 1.6ft 9s 6s 7
mph
1011.7mb 74f 73f
10:50pm 1.6ft 9s 5s 7 9 mph 1011.9mb 74f 73f
9:50pm 1.6ft 9s 5s 4 7 mph 1011.6mb 73f 72f
8:50pm 1.6ft 8s 5s 9 11 mph 1011.4mb 73f 72f
7:50pm 1.6ft 9s 5s 9 11 mph 1011.3mb 73f 71f